^^
Station Historical Data
Daily Summary for August 30, 2017 Units:  Metric    English   Both
« Previous Day
Next Day »
Daily Weekly Monthly Yearly Custom
  High: Low: Average:
Temperature: 23.8 °C 3.7 °C 11.2 °C
Dew Point: 4.6 °C -2.8 °C 2 °C
Humidity: 88% 21% 60%
Wind Speed: 16.3km/h 0km/h 1.8km/h
Wind Gust: 22.5km/h - -
Wind- - ESE
Pressure: 1021.9 hPa 1015.8 hPa -
Precipitation: 0 mm    
Historical Graphs
 
 
Tabular Data for August 30, 2017
Time Temperature Dew Point Pressure Wind Wind Speed Wind Gust Humidity Rainfall Rate (Hourly) solar Conditions
00:08 7.9 °C 2.8 °C 1019.9 hPa Calm     70% 0 mm 0.0 W/m2
00:13 7.8 °C 2.7 °C 1019.5 hPa Calm     70% 0 mm 0.0 W/m2
00:18 7.6 °C 2.7 °C 1019.5 hPa Calm     71% 0 mm 0.0 W/m2
00:28 7.3 °C 2.6 °C 1019.5 hPa Calm     72% 0 mm 0.0 W/m2
00:33 7.2 °C 2.7 °C 1019.5 hPa Calm     73% 0 mm 0.0 W/m2
00:39 7.2 °C 2.7 °C 1019.5 hPa Calm     73% 0 mm 0.0 W/m2
00:44 7.1 °C 2.6 °C 1019.5 hPa Calm     73% 0 mm 0.0 W/m2
00:49 7.1 °C 2.6 °C 1019.5 hPa Calm     73% 0 mm 0.0 W/m2
00:55 6.9 °C 2.2 °C 1019.9 hPa Calm     72% 0 mm 0.0 W/m2
01:05 6.6 °C 2.5 °C 1019.5 hPa Calm     75% 0 mm 0.0 W/m2
01:10 6.7 °C 3 °C 1019.5 hPa Calm     77% 0 mm 0.0 W/m2
01:15 6.9 °C 3.1 °C 1019.5 hPa Calm     77% 0 mm 0.0 W/m2
01:20 7.1 °C 3.2 °C 1019.5 hPa Calm     76% 0 mm 0.0 W/m2
01:25 7.3 °C 3.2 °C 1019.5 hPa Calm     75% 0 mm 0.0 W/m2
01:30 7.3 °C 3 °C 1019.5 hPa Calm     74% 0 mm 0.0 W/m2
01:36 7.1 °C 2.6 °C 1019.5 hPa Calm     73% 0 mm 0.0 W/m2
01:41 6.9 °C 2.6 °C 1019.5 hPa Calm     74% 0 mm 0.0 W/m2
01:46 6.8 °C 2.7 °C 1019.2 hPa Calm     75% 0 mm 0.0 W/m2
01:51 6.6 °C 2.3 °C 1019.2 hPa Calm     74% 0 mm 0.0 W/m2
01:56 6.3 °C 2.2 °C 1019.2 hPa Calm     75% 0 mm 0.0 W/m2
02:07 6.2 °C 2.3 °C 1019.2 hPa Calm     76% 0 mm 0.0 W/m2
02:17 5.7 °C 1.8 °C 1019.2 hPa Calm   4.8 km/h 76% 0 mm 0.0 W/m2
02:22 5.6 °C 2.1 °C 1019.2 hPa Calm     78% 0 mm 0.0 W/m2
02:27 5.6 °C 2.2 °C 1019.2 hPa Calm     79% 0 mm 0.0 W/m2
02:42 6.2 °C 3.2 °C 1018.8 hPa South 9.7 km/h 9.7 km/h 81% 0 mm 0.0 W/m2
02:58 6.4 °C 3.2 °C 1018.8 hPa South 6.4 km/h 9.7 km/h 80% 0 mm 0.0 W/m2
03:08 6.1 °C 2.7 °C 1018.8 hPa South 4.7 km/h 8 km/h 79% 0 mm 0.0 W/m2
03:13 5.9 °C 2.7 °C 1018.8 hPa South 9.7 km/h 9.7 km/h 80% 0 mm 0.0 W/m2
03:18 5.8 °C 2.8 °C 1018.8 hPa South 4.7 km/h 8 km/h 81% 0 mm 0.0 W/m2
03:28 5.6 °C 2.6 °C 1018.8 hPa South 4.7 km/h 6.4 km/h 81% 0 mm 0.0 W/m2
03:38 5.6 °C 2.8 °C 1018.8 hPa South 7.9 km/h 8 km/h 82% 0 mm 0.0 W/m2
03:43 5.6 °C 2.8 °C 1018.8 hPa South 7.9 km/h 9.7 km/h 82% 0 mm 0.0 W/m2
03:48 5.6 °C 2.8 °C 1018.8 hPa South 6.4 km/h 8 km/h 82% 0 mm 0.0 W/m2
03:54 5.5 °C 2.7 °C 1018.8 hPa Calm   3.2 km/h 82% 0 mm 0.0 W/m2
04:04 5.3 °C 2.6 °C 1019.2 hPa Calm     83% 0 mm 0.0 W/m2
04:09 5.2 °C 2.4 °C 1019.2 hPa Calm     82% 0 mm 0.0 W/m2
04:14 5.2 °C 2.7 °C 1019.2 hPa Calm     84% 0 mm 0.0 W/m2
04:19 5.2 °C 2.7 °C 1019.2 hPa Calm     84% 0 mm 0.0 W/m2
04:29 5 °C 2.4 °C 1019.5 hPa Calm     83% 0 mm 0.0 W/m2
04:39 4.8 °C 2.3 °C 1019.5 hPa Calm     84% 0 mm 0.0 W/m2
04:44 4.7 °C 1.9 °C 1019.5 hPa Calm     82% 0 mm 0.0 W/m2
04:49 4.4 °C 1.6 °C 1019.5 hPa Calm     82% 0 mm 0.0 W/m2
04:55 4.1 °C 1.1 °C 1019.5 hPa Calm     81% 0 mm 0.0 W/m2
05:05 3.7 °C 1.2 °C 1019.5 hPa Calm     84% 0 mm 0.0 W/m2
05:11 3.8 °C 1.7 °C 1019.9 hPa Calm     86% 0 mm 0.0 W/m2
05:16 3.8 °C 1.5 °C 1019.9 hPa Calm     85% 0 mm 0.0 W/m2
05:21 3.9 °C 1.8 °C 1019.9 hPa Calm     86% 0 mm 0.0 W/m2
05:26 4 °C 1.9 °C 1019.9 hPa Calm     86% 0 mm 0.0 W/m2
05:32 4.4 °C 2.6 °C 1019.9 hPa Calm     88% 0 mm 0.0 W/m2
05:37 4.4 °C 2.3 °C 1019.9 hPa Calm     86% 0 mm 0.0 W/m2
05:42 4.3 °C 1.8 °C 1019.9 hPa Calm     84% 0 mm 0.0 W/m2
05:47 4.1 °C 1.5 °C 1019.9 hPa Calm     83% 0 mm 0.0 W/m2
05:52 4.1 °C 2 °C 1019.9 hPa Calm     86% 0 mm 0.0 W/m2
06:02 5.1 °C 3.3 °C 1019.9 hPa Calm     88% 0 mm 0.0 W/m2
06:07 5.2 °C 2.7 °C 1020.2 hPa Calm     84% 0 mm 5.0 W/m2
06:12 5.2 °C 2.7 °C 1020.2 hPa Calm     84% 0 mm 7.0 W/m2
06:17 5.1 °C 2.6 °C 1020.2 hPa Calm     84% 0 mm 9.0 W/m2
06:30 4.9 °C 2.1 °C 1020.2 hPa Calm     82% 0 mm 12.0 W/m2
06:43 4.6 °C 2.1 °C 1020.5 hPa Calm     84% 0 mm 54.0 W/m2
06:48 4.8 °C 2.5 °C 1020.5 hPa Calm     85% 0 mm 69.0 W/m2
06:53 5.2 °C 2.9 °C 1020.5 hPa Calm     85% 0 mm 84.0 W/m2
06:58 5.5 °C 2.8 °C 1020.5 hPa Calm     83% 0 mm 98.0 W/m2
07:05 6 °C 3.3 °C 1020.9 hPa Calm     83% 0 mm 118.0 W/m2
07:11 6.5 °C 3.5 °C 1020.9 hPa Calm     81% 0 mm 135.0 W/m2
07:19 7.2 °C 3.4 °C 1020.9 hPa Calm     77% 0 mm 167.0 W/m2
07:29 7.9 °C 3.7 °C 1021.2 hPa Calm     75% 0 mm 202.0 W/m2
07:52 9 °C 4.6 °C 1021.2 hPa Calm     74% 0 mm 246.0 W/m2
08:05 10.1 °C 4.2 °C 1021.2 hPa Calm     67% 0 mm 294.0 W/m2
08:15 11.2 °C 4.2 °C 1021.2 hPa SSE 9.7 km/h 12.9 km/h 62% 0 mm 334.0 W/m2
08:35 11.7 °C 4.4 °C 1021.2 hPa SE 1.4 km/h 14.5 km/h 61% 0 mm 376.0 W/m2
08:47 12.2 °C 4.2 °C 1021.6 hPa SE 3.2 km/h 12.9 km/h 58% 0 mm 418.0 W/m2
08:50 12.2 °C 4.2 °C 1021.6 hPa SE 7.9 km/h 12.9 km/h 58% 0 mm 436.0 W/m2
09:04 12.4 °C 4.1 °C 1021.6 hPa SE 4.7 km/h 12.9 km/h 57% 0 mm 459.0 W/m2
09:12 12.4 °C 4.1 °C 1021.6 hPa ESE 14.3 km/h 19.3 km/h 57% 0 mm 485.0 W/m2
09:22 12.9 °C 4.1 °C 1021.6 hPa ESE 14.3 km/h 19.3 km/h 55% 0 mm 515.0 W/m2
09:30 13.4 °C 4.3 °C 1021.9 hPa East 4.7 km/h 9.7 km/h 54% 0 mm 538.0 W/m2
09:39 13.7 °C 4.3 °C 1021.6 hPa Calm   6.4 km/h 53% 0 mm 548.0 W/m2
09:50 13.8 °C 3.8 °C 1021.6 hPa Calm   8 km/h 51% 0 mm 571.0 W/m2
10:00 14.3 °C 3.7 °C 1021.6 hPa Calm   11.3 km/h 49% 0 mm 592.0 W/m2
10:08 14.3 °C 3.7 °C 1021.6 hPa Calm   14.5 km/h 49% 0 mm 613.0 W/m2
10:16 14.7 °C 3.8 °C 1021.2 hPa East 3.2 km/h 11.3 km/h 48% 0 mm 631.0 W/m2
10:29 15 °C 3.5 °C 1021.2 hPa East 3.2 km/h 11.3 km/h 46% 0 mm 647.0 W/m2
10:47 15.8 °C 3.2 °C 1020.9 hPa Calm   14.5 km/h 43% 0 mm 673.0 W/m2
12:32 18.9 °C 2.7 °C 1018.8 hPa NE 3.2 km/h 14.5 km/h 34% 0 mm 515.0 W/m2
12:47 19.7 °C 2.5 °C 1018.8 hPa NNE 6.4 km/h 17.7 km/h 32% 0 mm 513.0 W/m2
12:58 20.3 °C 2.2 °C 1018.5 hPa NNE 7.9 km/h 22.5 km/h 30% 0 mm 508.0 W/m2
13:08 20.4 °C 1.8 °C 1018.2 hPa NNE 13 km/h 14.5 km/h 29% 0 mm 506.0 W/m2
13:18 21 °C 1.8 °C 1017.8 hPa Calm   12.9 km/h 28% 0 mm 499.0 W/m2
13:22 20.9 °C 1.2 °C 1017.8 hPa NNE 1.4 km/h 16.1 km/h 27% 0 mm 496.0 W/m2
13:29 20.9 °C 1.7 °C 1017.8 hPa NNE 3.2 km/h 12.9 km/h 28% 0 mm 492.0 W/m2
13:58 21.8 °C 0.9 °C 1017.5 hPa Calm   11.3 km/h 25% 0 mm 466.0 W/m2
14:08 22.1 °C 1.1 °C 1017.5 hPa NNE 1.4 km/h 14.5 km/h 25% 0 mm 454.0 W/m2
14:23 22.4 °C 0.8 °C 1016.8 hPa NNE 9.7 km/h 12.9 km/h 24% 0 mm 434.0 W/m2
14:33 22.4 °C 0.8 °C 1016.8 hPa NNE 16.3 km/h 16.3 km/h 24% 0 mm 420.0 W/m2
14:50 22.7 °C 1.1 °C 1016.5 hPa NNE 9.7 km/h 11.3 km/h 24% 0 mm 394.0 W/m2
14:59 22.7 °C 1.1 °C 1016.5 hPa NNE 3.2 km/h 11.3 km/h 24% 0 mm 376.0 W/m2
15:05 22.8 °C 0 °C 1016.5 hPa Calm   17.7 km/h 22% 0 mm 367.0 W/m2
15:11 22.8 °C 0.6 °C 1016.5 hPa NNE 1.4 km/h 11.3 km/h 23% 0 mm 360.0 W/m2
15:37 23.3 °C 0.4 °C 1016.1 hPa NNE 3.2 km/h 6.4 km/h 22% 0 mm 308.0 W/m2
15:47 23.4 °C 0.5 °C 1016.1 hPa Calm   3.2 km/h 22% 0 mm 285.0 W/m2
15:57 23.7 °C 0.7 °C 1016.1 hPa Calm     22% 0 mm 262.0 W/m2
16:08 23.6 °C 0.6 °C 1016.1 hPa Calm     22% 0 mm 236.0 W/m2
16:20 23.6 °C 0.6 °C 1016.1 hPa Calm     22% 0 mm 209.0 W/m2
16:29 23.6 °C 0.6 °C 1016.1 hPa Calm     22% 0 mm 176.0 W/m2
16:42 23.8 °C 0.2 °C 1016.1 hPa Calm   6.4 km/h 21% 0 mm 142.0 W/m2
17:32 22.8 °C 0.6 °C 1015.8 hPa Calm     23% 0 mm 7.0 W/m2
17:43 22.3 °C 0.2 °C 1015.8 hPa Calm     23% 0 mm 0.0 W/m2
18:13 19.9 °C -1.3 °C 1016.1 hPa Calm     24% 0 mm 0.0 W/m2
18:27 18.8 °C -1.1 °C 1016.1 hPa Calm     26% 0 mm 0.0 W/m2
18:54 18.1 °C -0.7 °C 1016.1 hPa Calm     28% 0 mm 0.0 W/m2
19:10 17.6 °C -1.1 °C 1016.5 hPa Calm     28% 0 mm 0.0 W/m2
19:24 17.1 °C -0.6 °C 1016.5 hPa Calm     30% 0 mm 0.0 W/m2
19:39 16.5 °C -1.1 °C 1016.5 hPa Calm     30% 0 mm 0.0 W/m2
19:54 16.5 °C -1.6 °C 1016.5 hPa Calm     29% 0 mm 0.0 W/m2
20:08 16.1 °C -1.5 °C 1016.5 hPa Calm     30% 0 mm 0.0 W/m2
20:19 16.1 °C -1 °C 1016.8 hPa Calm     31% 0 mm 0.0 W/m2
20:45 16.3 °C -1.3 °C 1016.8 hPa Calm     30% 0 mm 0.0 W/m2
21:00 15.5 °C -2.5 °C 1017.2 hPa Calm     29% 0 mm 0.0 W/m2
21:14 14.1 °C -2.8 °C 1017.2 hPa Calm     31% 0 mm 0.0 W/m2
21:21 13.6 °C -2.8 °C 1017.2 hPa Calm     32% 0 mm 0.0 W/m2
Canyon Roadhouse, Fishriver Canyon, Namibia
Compliments of Weather Underground - 2.25 mb